createdAt,value
2018-09-05T00:00:31.663Z,21.74
2018-09-05T00:01:31.745Z,21.74
2018-09-05T00:02:31.611Z,21.74
2018-09-05T00:03:31.726Z,21.74
2018-09-05T00:04:31.626Z,21.74
2018-09-05T00:05:31.621Z,21.73
2018-09-05T00:06:31.812Z,21.74
2018-09-05T00:07:31.737Z,21.74
2018-09-05T00:08:31.658Z,21.73
2018-09-05T00:09:31.715Z,21.73
2018-09-05T00:10:31.639Z,21.72
2018-09-05T00:11:31.594Z,21.7
2018-09-05T00:12:31.680Z,21.73
2018-09-05T00:13:31.799Z,21.74
2018-09-05T00:14:31.725Z,21.74
2018-09-05T00:15:31.620Z,21.73
2018-09-05T00:16:31.748Z,21.73
2018-09-05T00:17:31.717Z,21.7
2018-09-05T00:18:31.674Z,21.72
2018-09-05T00:19:31.599Z,21.72
2018-09-05T00:20:31.645Z,21.74
2018-09-05T00:21:31.841Z,21.73
2018-09-05T00:22:31.924Z,21.72
2018-09-05T00:23:31.759Z,21.7
2018-09-05T00:24:31.631Z,21.7
2018-09-05T00:25:31.729Z,21.72
2018-09-05T00:26:31.972Z,21.7
2018-09-05T00:27:31.733Z,21.7
2018-09-05T00:28:31.730Z,21.72
2018-09-05T00:29:31.939Z,21.7
2018-09-05T00:30:31.856Z,21.72
2018-09-05T00:31:31.662Z,21.73
2018-09-05T00:32:31.778Z,21.72
2018-09-05T00:33:31.675Z,21.7
2018-09-05T00:34:31.737Z,21.7
2018-09-05T00:35:31.754Z,21.7
2018-09-05T00:36:31.764Z,21.7
2018-09-05T00:37:31.701Z,21.7
2018-09-05T00:38:31.631Z,21.7
2018-09-05T00:39:31.698Z,21.68
2018-09-05T00:40:32.195Z,21.7
2018-09-05T00:41:31.654Z,21.68
2018-09-05T00:42:31.671Z,21.7
2018-09-05T00:43:31.824Z,21.69
2018-09-05T00:44:31.947Z,21.7
2018-09-05T00:45:31.886Z,21.7
2018-09-05T00:46:31.674Z,21.69
2018-09-05T00:47:31.776Z,21.69
2018-09-05T00:48:31.653Z,21.7
2018-09-05T00:49:31.761Z,21.72
2018-09-05T00:50:31.811Z,21.69
2018-09-05T00:51:31.662Z,21.7
2018-09-05T00:52:31.798Z,21.68
2018-09-05T00:53:31.776Z,21.72
2018-09-05T00:54:31.824Z,21.7
2018-09-05T00:55:31.729Z,21.72
2018-09-05T00:56:31.568Z,21.69
2018-09-05T00:57:31.666Z,21.68
2018-09-05T00:58:31.560Z,21.69
2018-09-05T00:59:31.903Z,21.7
2018-09-05T01:00:31.534Z,21.68
2018-09-05T01:01:31.757Z,21.69
2018-09-05T01:02:31.736Z,21.67
2018-09-05T01:03:31.680Z,21.69
2018-09-05T01:04:31.676Z,21.7
2018-09-05T01:05:31.711Z,21.69
2018-09-05T01:06:31.605Z,21.69
2018-09-05T01:07:31.660Z,21.73
2018-09-05T01:08:31.690Z,21.68
2018-09-05T01:09:31.734Z,21.7
2018-09-05T01:10:31.659Z,21.68
2018-09-05T01:11:31.745Z,21.7
2018-09-05T01:12:31.725Z,21.68
2018-09-05T01:13:31.751Z,21.68
2018-09-05T01:14:31.780Z,21.69
2018-09-05T01:15:31.660Z,21.69
2018-09-05T01:16:31.656Z,21.69
2018-09-05T01:17:31.613Z,21.68
2018-09-05T01:18:31.658Z,21.66
2018-09-05T01:19:31.613Z,21.68
2018-09-05T01:20:31.675Z,21.68
2018-09-05T01:21:31.690Z,21.69
2018-09-05T01:22:31.531Z,21.69
2018-09-05T01:23:31.668Z,21.68
2018-09-05T01:24:31.597Z,21.68
2018-09-05T01:25:31.691Z,21.69
2018-09-05T01:26:31.709Z,21.68
2018-09-05T01:27:31.668Z,21.68
2018-09-05T01:28:31.625Z,21.68
2018-09-05T01:29:31.729Z,21.68
2018-09-05T01:30:31.627Z,21.67
2018-09-05T01:31:31.685Z,21.69
2018-09-05T01:32:31.630Z,21.67
2018-09-05T01:33:31.644Z,21.69
2018-09-05T01:34:31.915Z,21.69
2018-09-05T01:35:31.744Z,21.67
2018-09-05T01:36:31.724Z,21.68
2018-09-05T01:37:31.834Z,21.7
2018-09-05T01:38:31.742Z,21.66
2018-09-05T01:39:31.817Z,21.66
2018-09-05T01:40:31.621Z,21.68
2018-09-05T01:41:31.507Z,21.67
2018-09-05T01:42:31.746Z,21.67
2018-09-05T01:43:31.676Z,21.68
2018-09-05T01:44:31.540Z,21.67
2018-09-05T01:45:31.597Z,21.66
2018-09-05T01:46:31.660Z,21.68
2018-09-05T01:47:32.237Z,21.68
2018-09-05T01:48:31.750Z,21.66
2018-09-05T01:49:31.591Z,21.68
2018-09-05T01:50:31.483Z,21.66
2018-09-05T01:51:31.763Z,21.66
2018-09-05T01:52:31.737Z,21.68
2018-09-05T01:53:31.680Z,21.67
2018-09-05T01:54:31.684Z,21.66
2018-09-05T01:55:31.665Z,21.69
2018-09-05T01:56:31.835Z,21.66
2018-09-05T01:57:31.666Z,21.68
2018-09-05T01:58:31.746Z,21.66
2018-09-05T01:59:31.667Z,21.65
2018-09-05T02:00:31.738Z,21.69
2018-09-05T02:01:31.536Z,21.67
2018-09-05T02:02:31.777Z,21.68
2018-09-05T02:03:31.790Z,21.67
2018-09-05T02:04:31.733Z,21.67
2018-09-05T02:05:31.455Z,21.69
2018-09-05T02:06:31.752Z,21.67
2018-09-05T02:07:32.000Z,21.67
2018-09-05T02:08:32.256Z,21.67
2018-09-05T02:09:31.891Z,21.66
2018-09-05T02:10:31.644Z,21.66
2018-09-05T02:11:31.703Z,21.66
2018-09-05T02:12:31.763Z,21.66
2018-09-05T02:13:31.557Z,21.68
2018-09-05T02:14:31.718Z,21.66
2018-09-05T02:15:31.680Z,21.66
2018-09-05T02:16:31.944Z,21.65
2018-09-05T02:17:31.627Z,21.65
2018-09-05T02:18:31.696Z,21.66
2018-09-05T02:19:32.048Z,21.67
2018-09-05T02:20:31.701Z,21.67
2018-09-05T02:21:31.742Z,21.66
2018-09-05T02:22:31.700Z,21.66
2018-09-05T02:23:31.588Z,21.69
2018-09-05T02:24:31.668Z,21.68
2018-09-05T02:25:31.552Z,21.67
2018-09-05T02:26:31.703Z,21.67
2018-09-05T02:27:31.702Z,21.67
2018-09-05T02:28:31.772Z,21.68
2018-09-05T02:29:31.667Z,21.66
2018-09-05T02:30:31.533Z,21.65
2018-09-05T02:31:31.744Z,21.66
2018-09-05T02:32:31.573Z,21.66
2018-09-05T02:33:31.619Z,21.67
2018-09-05T02:34:31.561Z,21.67
2018-09-05T02:35:31.667Z,21.67
2018-09-05T02:36:31.660Z,21.66
2018-09-05T02:37:31.617Z,21.67
2018-09-05T02:38:31.633Z,21.69
2018-09-05T02:39:31.782Z,21.66
2018-09-05T02:40:32.177Z,21.68
2018-09-05T02:41:31.518Z,21.66
2018-09-05T02:42:31.619Z,21.67
2018-09-05T02:43:31.618Z,21.67
2018-09-05T02:44:31.466Z,21.66
2018-09-05T02:45:31.562Z,21.67
2018-09-05T02:46:31.632Z,21.65
2018-09-05T02:47:31.525Z,21.66
2018-09-05T02:48:31.663Z,21.66
2018-09-05T02:49:31.666Z,21.68
2018-09-05T02:50:31.467Z,21.66
2018-09-05T02:51:31.589Z,21.67
2018-09-05T02:52:31.653Z,21.66
2018-09-05T02:53:31.549Z,21.66
2018-09-05T02:54:31.897Z,21.65
2018-09-05T02:55:31.708Z,21.64
2018-09-05T02:56:32.159Z,21.66
2018-09-05T02:57:31.485Z,21.66
2018-09-05T02:58:31.652Z,21.67
2018-09-05T02:59:31.961Z,21.66
2018-09-05T03:00:31.713Z,21.68
2018-09-05T03:01:31.484Z,21.68
2018-09-05T03:02:31.735Z,21.67
2018-09-05T03:03:31.767Z,21.66
2018-09-05T03:04:31.694Z,21.66
2018-09-05T03:05:31.817Z,21.64
2018-09-05T03:06:31.827Z,21.63
2018-09-05T03:07:31.691Z,21.66
2018-09-05T03:08:31.917Z,21.7
2018-09-05T03:09:31.883Z,21.68
2018-09-05T03:10:31.499Z,21.67
2018-09-05T03:11:31.938Z,21.66
2018-09-05T03:12:31.433Z,21.66
2018-09-05T03:13:31.675Z,21.65
2018-09-05T03:14:31.623Z,21.66
2018-09-05T03:15:31.532Z,21.66
2018-09-05T03:16:31.535Z,21.67
2018-09-05T03:17:31.844Z,21.66
2018-09-05T03:18:31.664Z,21.65
2018-09-05T03:19:31.633Z,21.65
2018-09-05T03:20:31.724Z,21.66
2018-09-05T03:21:31.704Z,21.65
2018-09-05T03:22:31.761Z,21.66
2018-09-05T03:23:32.165Z,21.65
2018-09-05T03:24:31.840Z,21.66
2018-09-05T03:25:31.723Z,21.66
2018-09-05T03:26:31.484Z,21.66
2018-09-05T03:27:31.945Z,21.67
2018-09-05T03:28:31.562Z,21.64
2018-09-05T03:29:31.755Z,21.66
2018-09-05T03:30:31.755Z,21.66
2018-09-05T03:31:31.672Z,21.66
2018-09-05T03:32:32.547Z,21.67
2018-09-05T03:33:31.687Z,21.65
2018-09-05T03:34:31.686Z,21.66
2018-09-05T03:35:31.415Z,21.64
2018-09-05T03:36:31.713Z,21.65
2018-09-05T03:37:31.530Z,21.63
2018-09-05T03:38:31.691Z,21.64
2018-09-05T03:39:31.760Z,21.63
2018-09-05T03:40:31.783Z,21.64
2018-09-05T03:41:31.788Z,21.67
2018-09-05T03:42:31.633Z,21.66
2018-09-05T03:43:31.677Z,21.66
2018-09-05T03:44:31.960Z,21.65
2018-09-05T03:45:31.585Z,21.65
2018-09-05T03:46:32.003Z,21.66
2018-09-05T03:47:31.809Z,21.63
2018-09-05T03:48:31.504Z,21.65
2018-09-05T03:49:31.444Z,21.65
2018-09-05T03:50:31.524Z,21.64
2018-09-05T03:51:31.533Z,21.66
2018-09-05T03:52:32.046Z,21.66
2018-09-05T03:53:31.478Z,21.66
2018-09-05T03:54:31.691Z,21.65
2018-09-05T03:55:31.902Z,21.65
2018-09-05T03:56:31.751Z,21.66
2018-09-05T03:57:31.616Z,21.66
2018-09-05T03:58:31.675Z,21.65
2018-09-05T03:59:32.059Z,21.66
2018-09-05T04:00:31.742Z,21.65
2018-09-05T04:01:31.662Z,21.63
2018-09-05T04:02:31.770Z,21.64
2018-09-05T04:03:31.542Z,21.64
2018-09-05T04:04:31.619Z,21.65
2018-09-05T04:05:31.721Z,21.64
2018-09-05T04:06:31.685Z,21.66
2018-09-05T04:07:31.691Z,21.63
2018-09-05T04:08:31.448Z,21.66
2018-09-05T04:09:31.701Z,21.66
2018-09-05T04:10:31.667Z,21.66
2018-09-05T04:11:31.497Z,21.63
2018-09-05T04:12:31.810Z,21.65
2018-09-05T04:13:31.907Z,21.65
2018-09-05T04:14:31.657Z,21.66
2018-09-05T04:15:31.846Z,21.67
2018-09-05T04:16:31.795Z,21.65
2018-09-05T04:17:31.724Z,21.64
2018-09-05T04:18:31.508Z,21.65
2018-09-05T04:19:31.586Z,21.64
2018-09-05T04:20:31.638Z,21.65
2018-09-05T04:21:31.600Z,21.66
2018-09-05T04:22:31.632Z,21.66
2018-09-05T04:23:31.517Z,21.67
2018-09-05T04:24:31.916Z,21.66
2018-09-05T04:25:31.693Z,21.66
2018-09-05T04:26:31.767Z,21.64
2018-09-05T04:27:31.740Z,21.65
2018-09-05T04:28:31.617Z,21.65
2018-09-05T04:29:32.251Z,21.6
2018-09-05T04:30:31.450Z,21.61
2018-09-05T04:31:31.662Z,21.63
2018-09-05T04:32:31.550Z,21.64
2018-09-05T04:33:31.899Z,21.63
2018-09-05T04:34:31.634Z,21.63
2018-09-05T04:35:31.446Z,21.63
2018-09-05T04:36:31.444Z,21.62
2018-09-05T04:37:31.485Z,21.63
2018-09-05T04:38:31.489Z,21.63
2018-09-05T04:39:31.646Z,21.64
2018-09-05T04:40:31.494Z,21.64
2018-09-05T04:41:31.438Z,21.64
2018-09-05T04:42:31.461Z,21.63
2018-09-05T04:43:31.454Z,21.65
2018-09-05T04:44:31.475Z,21.63
2018-09-05T04:45:32.025Z,21.64
2018-09-05T04:46:31.678Z,21.67
2018-09-05T04:47:31.694Z,21.63
2018-09-05T04:48:31.709Z,21.64
2018-09-05T04:49:31.870Z,21.63
2018-09-05T04:50:31.599Z,21.65
2018-09-05T04:51:31.684Z,21.65
2018-09-05T04:52:32.424Z,21.63
2018-09-05T04:53:31.610Z,21.66
2018-09-05T04:54:31.646Z,21.64
2018-09-05T04:55:31.681Z,21.63
2018-09-05T04:56:31.763Z,21.64
2018-09-05T04:57:31.784Z,21.65
2018-09-05T04:58:32.188Z,21.65
2018-09-05T04:59:31.896Z,21.64
2018-09-05T05:00:31.500Z,21.63
2018-09-05T05:01:31.534Z,21.65
2018-09-05T05:02:31.839Z,21.65
2018-09-05T05:03:31.479Z,21.65
2018-09-05T05:04:31.659Z,21.65
2018-09-05T05:05:32.004Z,21.64
2018-09-05T05:06:31.555Z,21.64
2018-09-05T05:07:31.528Z,21.64
2018-09-05T05:08:31.720Z,21.64
2018-09-05T05:09:31.471Z,21.65
2018-09-05T05:10:31.666Z,21.65
2018-09-05T05:11:31.477Z,21.65
2018-09-05T05:12:32.178Z,21.67
2018-09-05T05:13:31.597Z,21.64
2018-09-05T05:14:31.536Z,21.63
2018-09-05T05:15:31.713Z,21.65
2018-09-05T05:16:31.469Z,21.63
2018-09-05T05:17:31.752Z,21.64
2018-09-05T05:18:31.805Z,21.64
2018-09-05T05:19:31.744Z,21.65
2018-09-05T05:20:31.528Z,21.65
2018-09-05T05:21:31.713Z,21.64
2018-09-05T05:22:31.622Z,21.66
2018-09-05T05:23:31.834Z,21.64
2018-09-05T05:24:31.708Z,21.65
2018-09-05T05:25:31.736Z,21.66
2018-09-05T05:26:31.680Z,21.64
2018-09-05T05:27:31.905Z,21.66
2018-09-05T05:28:31.479Z,21.64
2018-09-05T05:29:31.654Z,21.63
2018-09-05T05:30:31.495Z,21.63
2018-09-05T05:31:31.629Z,21.64
2018-09-05T05:32:32.325Z,21.64
2018-09-05T05:33:31.779Z,21.64
2018-09-05T05:34:31.645Z,21.64
2018-09-05T05:35:31.784Z,21.66
2018-09-05T05:36:31.828Z,21.66
2018-09-05T05:37:31.435Z,21.66
2018-09-05T05:38:31.683Z,21.66
2018-09-05T05:39:31.649Z,21.63
2018-09-05T05:40:31.628Z,21.65
2018-09-05T05:41:31.870Z,21.64
2018-09-05T05:42:31.989Z,21.64
2018-09-05T05:43:31.466Z,21.63
2018-09-05T05:44:31.534Z,21.64
2018-09-05T05:45:31.616Z,21.65
2018-09-05T05:46:31.547Z,21.64
2018-09-05T05:47:31.754Z,21.63
2018-09-05T05:48:31.453Z,21.64
2018-09-05T05:49:31.418Z,21.66
2018-09-05T05:50:31.587Z,21.66
2018-09-05T05:51:31.659Z,21.64
2018-09-05T05:52:31.491Z,21.63
2018-09-05T05:53:31.715Z,21.64
2018-09-05T05:54:31.481Z,21.64
2018-09-05T05:55:31.420Z,21.62
2018-09-05T05:56:31.422Z,21.65
2018-09-05T05:57:31.766Z,21.65
2018-09-05T05:58:31.523Z,21.64
2018-09-05T05:59:31.412Z,21.63
2018-09-05T06:00:31.522Z,21.65
2018-09-05T06:01:31.650Z,21.63
2018-09-05T06:02:31.693Z,21.64
2018-09-05T06:03:31.692Z,21.64
2018-09-05T06:04:31.570Z,21.64
2018-09-05T06:05:31.510Z,21.63
2018-09-05T06:06:31.838Z,21.65
2018-09-05T06:07:31.638Z,21.65
2018-09-05T06:08:31.784Z,21.64
2018-09-05T06:09:31.628Z,21.64
2018-09-05T06:10:31.685Z,21.66
2018-09-05T06:11:31.739Z,21.64
2018-09-05T06:12:31.440Z,21.65
2018-09-05T06:13:31.702Z,21.66
2018-09-05T06:14:31.495Z,21.64
2018-09-05T06:15:32.053Z,21.64
2018-09-05T06:16:31.822Z,21.63
2018-09-05T06:17:31.732Z,21.63
2018-09-05T06:18:31.700Z,21.63
2018-09-05T06:19:31.612Z,21.66
2018-09-05T06:20:31.501Z,21.63
2018-09-05T06:21:31.775Z,21.64
2018-09-05T06:22:31.784Z,21.64
2018-09-05T06:23:31.582Z,21.64
2018-09-05T06:24:31.750Z,21.64
2018-09-05T06:25:31.707Z,21.62
2018-09-05T06:26:31.766Z,21.64
2018-09-05T06:27:31.417Z,21.65
2018-09-05T06:28:31.800Z,21.65
2018-09-05T06:29:32.027Z,21.63
2018-09-05T06:30:32.889Z,21.63
2018-09-05T06:31:31.679Z,21.63
2018-09-05T06:32:31.422Z,21.65
2018-09-05T06:33:31.710Z,21.62
2018-09-05T06:34:31.731Z,21.64
2018-09-05T06:35:31.855Z,21.64
2018-09-05T06:36:31.524Z,21.64
2018-09-05T06:37:31.636Z,21.63
2018-09-05T06:38:31.930Z,21.63
2018-09-05T06:39:31.563Z,21.64
2018-09-05T06:40:31.634Z,21.64
2018-09-05T06:41:31.592Z,21.64
2018-09-05T06:42:31.565Z,21.63
2018-09-05T06:43:31.816Z,21.63
2018-09-05T06:44:31.663Z,21.65
2018-09-05T06:45:32.963Z,21.64
2018-09-05T06:46:31.499Z,21.66
2018-09-05T06:47:32.069Z,21.64
2018-09-05T06:48:31.511Z,21.64
2018-09-05T06:49:31.711Z,21.65
2018-09-05T06:50:31.733Z,21.64
2018-09-05T06:51:32.463Z,21.65
2018-09-05T06:52:31.651Z,21.64
2018-09-05T06:53:31.754Z,21.64
2018-09-05T06:54:31.725Z,21.63
2018-09-05T06:55:31.746Z,21.65
2018-09-05T06:56:31.840Z,21.64
2018-09-05T06:57:31.675Z,21.63
2018-09-05T06:58:31.657Z,21.63
2018-09-05T06:59:31.492Z,21.63
2018-09-05T07:00:31.670Z,21.63
2018-09-05T07:01:31.747Z,21.63
2018-09-05T07:02:31.684Z,21.61
2018-09-05T07:03:31.965Z,21.65
2018-09-05T07:04:31.663Z,21.64
2018-09-05T07:05:31.426Z,21.64
2018-09-05T07:06:31.379Z,21.65
2018-09-05T07:07:31.429Z,21.63
2018-09-05T07:08:31.637Z,21.64
2018-09-05T07:09:31.433Z,21.65
2018-09-05T07:10:31.433Z,21.64
2018-09-05T07:11:31.916Z,21.63
2018-09-05T07:12:31.729Z,21.64
2018-09-05T07:13:31.472Z,21.63
2018-09-05T07:14:32.144Z,21.61
2018-09-05T07:15:31.643Z,21.63
2018-09-05T07:16:31.610Z,21.63
2018-09-05T07:17:31.765Z,21.63
2018-09-05T07:18:31.584Z,21.63
2018-09-05T07:19:31.645Z,21.62
2018-09-05T07:20:31.434Z,21.62
2018-09-05T07:21:32.133Z,21.63
2018-09-05T07:22:31.742Z,21.61
2018-09-05T07:23:31.412Z,21.63
2018-09-05T07:24:31.538Z,21.63
2018-09-05T07:25:31.518Z,21.61
2018-09-05T07:26:31.803Z,21.61
2018-09-05T07:27:31.922Z,21.61
2018-09-05T07:28:31.747Z,21.61
2018-09-05T07:29:31.649Z,21.6
2018-09-05T07:30:32.414Z,21.6
2018-09-05T07:31:31.856Z,21.62
2018-09-05T07:32:31.451Z,21.6
2018-09-05T07:33:31.766Z,21.62
2018-09-05T07:34:31.667Z,21.61
2018-09-05T07:35:31.946Z,21.6
2018-09-05T07:36:31.634Z,21.61
2018-09-05T07:37:31.684Z,21.62
2018-09-05T07:38:31.772Z,21.61
2018-09-05T07:39:31.548Z,21.62
2018-09-05T07:40:31.717Z,21.63
2018-09-05T07:41:31.719Z,21.62
2018-09-05T07:42:31.617Z,21.61
2018-09-05T07:43:31.680Z,21.63
2018-09-05T07:44:31.673Z,21.6
2018-09-05T07:45:31.598Z,21.59
2018-09-05T07:46:31.858Z,21.61
2018-09-05T07:47:31.392Z,21.6
2018-09-05T07:48:31.551Z,21.6
2018-09-05T07:49:31.629Z,21.6
2018-09-05T07:50:31.475Z,21.6
2018-09-05T07:51:31.766Z,21.6
2018-09-05T07:52:31.510Z,21.62
2018-09-05T07:53:31.457Z,21.6
2018-09-05T07:54:31.680Z,21.61
2018-09-05T07:55:31.921Z,21.6
2018-09-05T07:56:31.711Z,21.62
2018-09-05T07:57:31.770Z,21.6
2018-09-05T07:58:31.717Z,21.61
2018-09-05T07:59:31.564Z,21.61
2018-09-05T08:00:31.688Z,21.6
2018-09-05T08:01:31.474Z,21.6
2018-09-05T08:02:31.806Z,21.6
2018-09-05T08:03:31.691Z,21.62
2018-09-05T08:04:31.600Z,21.6
2018-09-05T08:05:31.486Z,21.62
2018-09-05T08:06:31.453Z,21.59
2018-09-05T08:07:31.437Z,21.6
2018-09-05T08:08:32.335Z,21.62
2018-09-05T08:09:31.637Z,21.62
2018-09-05T08:10:31.558Z,21.62
2018-09-05T08:11:31.496Z,21.62
2018-09-05T08:12:31.680Z,21.6
2018-09-05T08:13:31.742Z,21.61
2018-09-05T08:14:31.440Z,21.61
2018-09-05T08:15:31.771Z,21.62
2018-09-05T08:16:31.445Z,21.62
2018-09-05T08:17:31.642Z,21.61
2018-09-05T08:18:31.493Z,21.61
2018-09-05T08:19:31.733Z,21.62
2018-09-05T08:20:31.675Z,21.62
2018-09-05T08:21:31.756Z,21.62
2018-09-05T08:22:31.672Z,21.62
2018-09-05T08:23:31.485Z,21.6
2018-09-05T08:24:31.851Z,21.63
2018-09-05T08:25:31.532Z,21.63
2018-09-05T08:26:31.381Z,21.63
2018-09-05T08:27:31.573Z,21.62
2018-09-05T08:28:31.578Z,21.63
2018-09-05T08:29:31.631Z,21.61
2018-09-05T08:30:31.498Z,21.61
2018-09-05T08:31:31.650Z,21.6
2018-09-05T08:32:31.561Z,21.63
2018-09-05T08:33:31.483Z,21.62
2018-09-05T08:34:31.689Z,21.62
2018-09-05T08:35:33.868Z,21.63
2018-09-05T08:36:33.351Z,21.62
2018-09-05T08:37:33.396Z,21.62
2018-09-05T08:38:32.925Z,21.62
2018-09-05T08:39:31.723Z,21.61
2018-09-05T08:40:31.385Z,21.6
2018-09-05T08:41:32.318Z,21.61
2018-09-05T08:42:31.684Z,21.6
2018-09-05T08:43:31.821Z,21.61
2018-09-05T08:44:32.210Z,21.6
2018-09-05T08:45:32.947Z,21.6
2018-09-05T08:46:31.685Z,21.62
2018-09-05T08:47:32.501Z,21.61
2018-09-05T08:48:31.902Z,21.61
2018-09-05T08:49:31.706Z,21.61
2018-09-05T08:50:31.516Z,21.63
2018-09-05T08:51:31.807Z,21.62
2018-09-05T08:52:31.732Z,21.6
2018-09-05T08:53:31.719Z,21.61
2018-09-05T08:54:31.528Z,21.6
2018-09-05T08:55:31.440Z,21.6
2018-09-05T08:56:31.540Z,21.61
2018-09-05T08:57:31.530Z,21.6
2018-09-05T08:58:31.535Z,21.6
2018-09-05T08:59:31.640Z,21.61
2018-09-05T09:00:31.777Z,21.6
2018-09-05T09:01:32.101Z,21.61
2018-09-05T09:02:31.440Z,21.63
2018-09-05T09:03:31.728Z,21.61
2018-09-05T09:04:31.831Z,21.6
2018-09-05T09:05:31.727Z,21.61
2018-09-05T09:06:31.729Z,21.61
2018-09-05T09:07:31.767Z,21.62
2018-09-05T09:08:31.528Z,21.62
2018-09-05T09:09:31.499Z,21.62
2018-09-05T09:10:31.438Z,21.61
2018-09-05T09:11:31.957Z,21.59
2018-09-05T09:12:31.732Z,21.6
2018-09-05T09:13:32.122Z,21.6
2018-09-05T09:14:31.523Z,21.6
2018-09-05T09:15:31.502Z,21.6
2018-09-05T09:16:31.891Z,21.62
2018-09-05T09:17:31.572Z,21.62
2018-09-05T09:18:31.683Z,21.59
2018-09-05T09:19:31.623Z,21.62
2018-09-05T09:20:31.665Z,21.59
2018-09-05T09:21:31.543Z,21.6
2018-09-05T09:22:31.422Z,21.63
2018-09-05T09:23:31.662Z,21.61
2018-09-05T09:24:31.578Z,21.6
2018-09-05T09:25:31.624Z,21.6
2018-09-05T09:26:31.451Z,21.61
2018-09-05T09:27:31.621Z,21.62
2018-09-05T09:28:31.762Z,21.6
2018-09-05T09:29:31.494Z,21.61
2018-09-05T09:30:31.687Z,21.61
2018-09-05T09:31:31.328Z,21.6
2018-09-05T09:32:31.466Z,21.62
2018-09-05T09:33:32.110Z,21.6
2018-09-05T09:34:31.369Z,21.61
2018-09-05T09:35:31.753Z,21.61
2018-09-05T09:36:31.701Z,21.6
2018-09-05T09:37:31.644Z,21.61
2018-09-05T09:38:31.755Z,21.6
2018-09-05T09:39:31.686Z,21.61
2018-09-05T09:40:31.758Z,21.61
2018-09-05T09:41:31.406Z,21.59
2018-09-05T09:42:32.090Z,21.61
2018-09-05T09:43:31.714Z,21.6
2018-09-05T09:44:31.637Z,21.6
2018-09-05T09:45:31.358Z,21.6
2018-09-05T09:46:31.807Z,21.61
2018-09-05T09:47:31.597Z,21.6
2018-09-05T09:48:31.542Z,21.63
2018-09-05T09:49:31.579Z,21.6
2018-09-05T09:50:31.606Z,21.62
2018-09-05T09:51:31.655Z,21.59
2018-09-05T09:52:31.438Z,21.61
2018-09-05T09:53:32.110Z,21.6
2018-09-05T09:54:31.632Z,21.62
2018-09-05T09:55:31.808Z,21.63
2018-09-05T09:56:31.624Z,21.61
2018-09-05T09:57:31.375Z,21.6
2018-09-05T09:58:31.674Z,21.63
2018-09-05T09:59:31.666Z,21.6
2018-09-05T10:00:31.713Z,21.61
2018-09-05T10:01:31.533Z,21.61
2018-09-05T10:02:31.479Z,21.6
2018-09-05T10:03:32.509Z,21.6
2018-09-05T10:04:31.730Z,21.61
2018-09-05T10:05:31.544Z,21.61
2018-09-05T10:06:31.554Z,21.6
2018-09-05T10:07:31.373Z,21.62
2018-09-05T10:08:31.525Z,21.62
2018-09-05T10:09:31.846Z,21.62
2018-09-05T10:10:31.771Z,21.6
2018-09-05T10:11:31.417Z,21.63
2018-09-05T10:12:31.708Z,21.61
2018-09-05T10:13:31.378Z,21.62
2018-09-05T10:14:31.586Z,21.6
2018-09-05T10:15:31.505Z,21.6
2018-09-05T10:16:31.460Z,21.61
2018-09-05T10:17:31.745Z,21.6
2018-09-05T10:18:31.537Z,21.6
2018-09-05T10:19:31.770Z,21.61
2018-09-05T10:20:31.574Z,21.6
2018-09-05T10:21:31.393Z,21.61
2018-09-05T10:22:31.834Z,21.61
2018-09-05T10:23:31.728Z,21.62
2018-09-05T10:24:31.720Z,21.61
2018-09-05T10:25:31.464Z,21.61
2018-09-05T10:26:31.476Z,21.6
2018-09-05T10:27:31.379Z,21.59
2018-09-05T10:28:31.455Z,21.61
2018-09-05T10:29:31.399Z,21.6
2018-09-05T10:30:31.636Z,21.62
2018-09-05T10:31:31.793Z,21.6
2018-09-05T10:32:31.616Z,21.62
2018-09-05T10:33:31.569Z,21.63
2018-09-05T10:34:31.582Z,21.62
2018-09-05T10:35:31.357Z,21.61
2018-09-05T10:36:31.647Z,21.61
2018-09-05T10:37:31.398Z,21.62
2018-09-05T10:38:31.435Z,21.6
2018-09-05T10:39:31.379Z,21.63
2018-09-05T10:40:31.548Z,21.62
2018-09-05T10:41:31.576Z,21.61
2018-09-05T10:42:31.530Z,21.62
2018-09-05T10:43:31.965Z,21.62
2018-09-05T10:44:31.639Z,21.61
2018-09-05T10:45:31.535Z,21.63
2018-09-05T10:46:31.403Z,21.63
2018-09-05T10:47:31.360Z,21.63
2018-09-05T10:48:31.578Z,21.62
2018-09-05T10:49:31.418Z,21.62
2018-09-05T10:50:31.844Z,21.6
2018-09-05T10:51:31.973Z,21.61
2018-09-05T10:52:31.700Z,21.6
2018-09-05T10:53:31.736Z,21.61
2018-09-05T10:54:32.297Z,21.63
2018-09-05T10:55:31.839Z,21.62
2018-09-05T10:56:31.487Z,21.6
2018-09-05T10:57:31.353Z,21.63
2018-09-05T10:58:31.629Z,21.61
2018-09-05T10:59:31.403Z,21.61
2018-09-05T11:00:31.367Z,21.62
2018-09-05T11:01:31.791Z,21.61
2018-09-05T11:02:31.639Z,21.61
2018-09-05T11:03:31.444Z,21.6
2018-09-05T11:04:31.442Z,21.6
2018-09-05T11:05:31.777Z,21.61
2018-09-05T11:06:31.531Z,21.61
2018-09-05T11:07:34.042Z,21.6
2018-09-05T11:08:31.428Z,21.62
2018-09-05T11:09:31.722Z,21.61
2018-09-05T11:10:32.148Z,21.63
2018-09-05T11:11:31.584Z,21.6
2018-09-05T11:12:31.456Z,21.6
2018-09-05T11:13:31.436Z,21.62
2018-09-05T11:14:31.476Z,21.59
2018-09-05T11:15:31.454Z,21.63
2018-09-05T11:16:31.716Z,21.62
2018-09-05T11:17:31.345Z,21.62
2018-09-05T11:18:31.585Z,21.61
2018-09-05T11:19:31.749Z,21.62
2018-09-05T11:20:31.643Z,21.62
2018-09-05T11:21:31.754Z,21.63
2018-09-05T11:22:31.451Z,21.6
2018-09-05T11:23:31.811Z,21.62
2018-09-05T11:24:31.416Z,21.62
2018-09-05T11:25:31.396Z,21.6
2018-09-05T11:26:31.331Z,21.6
2018-09-05T11:27:31.704Z,21.62
2018-09-05T11:28:31.503Z,21.63
2018-09-05T11:29:31.345Z,21.63
2018-09-05T11:30:31.724Z,21.61
2018-09-05T11:31:31.472Z,21.62
2018-09-05T11:32:31.376Z,21.63
2018-09-05T11:33:31.482Z,21.61
2018-09-05T11:34:31.426Z,21.62
2018-09-05T11:35:31.590Z,21.6
2018-09-05T11:36:31.432Z,21.61
2018-09-05T11:37:31.802Z,21.61
2018-09-05T11:38:31.383Z,21.63
2018-09-05T11:39:31.551Z,21.61
2018-09-05T11:40:31.380Z,21.61
2018-09-05T11:41:31.653Z,21.62
2018-09-05T11:42:31.375Z,21.62
2018-09-05T11:43:31.445Z,21.61
2018-09-05T11:44:31.302Z,21.6
2018-09-05T11:45:31.444Z,21.63
2018-09-05T11:46:31.523Z,21.63
2018-09-05T11:47:31.633Z,21.62
2018-09-05T11:48:31.684Z,21.63
2018-09-05T11:49:31.474Z,21.61
2018-09-05T11:50:31.669Z,21.61
2018-09-05T11:51:31.497Z,21.61
2018-09-05T11:52:32.005Z,21.63
2018-09-05T11:53:31.692Z,21.63
2018-09-05T11:54:31.555Z,21.61
2018-09-05T11:55:31.435Z,21.6
2018-09-05T11:56:31.770Z,21.62
2018-09-05T11:57:31.671Z,21.61
2018-09-05T11:58:31.392Z,21.63
2018-09-05T11:59:31.524Z,21.61
2018-09-05T12:00:31.290Z,21.63
2018-09-05T12:01:31.439Z,21.63
2018-09-05T12:02:31.478Z,21.61
2018-09-05T12:03:31.396Z,21.62
2018-09-05T12:04:31.678Z,21.61
2018-09-05T12:05:31.321Z,21.61
2018-09-05T12:06:31.429Z,21.62
2018-09-05T12:07:31.876Z,21.61
2018-09-05T12:08:31.759Z,21.62
2018-09-05T12:09:31.712Z,21.63
2018-09-05T12:10:31.468Z,21.62
2018-09-05T12:11:31.885Z,21.61
2018-09-05T12:12:31.465Z,21.61
2018-09-05T12:13:31.393Z,21.63
2018-09-05T12:14:31.791Z,21.62
2018-09-05T12:15:32.015Z,21.62
2018-09-05T12:16:31.371Z,21.62
2018-09-05T12:17:31.607Z,21.62
2018-09-05T12:18:31.494Z,21.62
2018-09-05T12:19:31.318Z,21.62
2018-09-05T12:20:31.801Z,21.62
2018-09-05T12:21:31.505Z,21.61
2018-09-05T12:22:31.711Z,21.62
2018-09-05T12:23:31.505Z,21.62
2018-09-05T12:24:31.572Z,21.61
2018-09-05T12:25:31.514Z,21.63
2018-09-05T12:26:31.688Z,21.63
2018-09-05T12:27:31.621Z,21.66
2018-09-05T12:28:31.549Z,21.63
2018-09-05T12:29:31.395Z,21.65
2018-09-05T12:30:31.396Z,21.65
2018-09-05T12:31:31.740Z,21.63
2018-09-05T12:32:31.450Z,21.64
2018-09-05T12:33:31.501Z,21.67
2018-09-05T12:34:31.362Z,21.67
2018-09-05T12:35:31.653Z,21.66
2018-09-05T12:36:31.271Z,21.68
2018-09-05T12:37:31.742Z,21.7
2018-09-05T12:38:31.397Z,21.72
2018-09-05T12:39:31.416Z,21.72
2018-09-05T12:40:31.596Z,21.74
2018-09-05T12:41:31.507Z,21.75
2018-09-05T12:42:31.625Z,21.74
2018-09-05T12:43:31.444Z,21.73
2018-09-05T12:44:31.391Z,21.72
2018-09-05T12:45:31.679Z,21.73
2018-09-05T12:46:31.327Z,21.72
2018-09-05T12:47:31.695Z,21.72
2018-09-05T12:48:31.252Z,21.74
2018-09-05T12:49:31.528Z,21.7
2018-09-05T12:50:31.439Z,21.69
2018-09-05T12:51:31.452Z,21.72
2018-09-05T12:52:31.419Z,21.72
2018-09-05T12:53:31.351Z,21.7
2018-09-05T12:54:31.315Z,21.69
2018-09-05T12:55:31.355Z,21.72
2018-09-05T12:56:31.867Z,21.69